Time;durP1;ratioP1;P1;durP2;ratioP2;P2;SDS_P1;SDS_P2;PMS_P1;PMS_P2;Temp;Humidity;BMP_temperature;BMP_pressure;BME280_temperature;BME280_humidity;BME280_pressure;Samples;Min_cycle;Max_cycle;Signal;HPM_P1;HPM_P2
2024/01/08 00:02:24;;;;;;;2.80;2.60;;;21.30;59.20;;;;;;5039478;28;20461;-69
2024/01/08 00:04:53;;;;;;;2.40;2.20;;;21.20;59.20;;;;;;5054286;28;20456;-70
2024/01/08 00:07:21;;;;;;;2.53;2.37;;;21.20;59.20;;;;;;5051808;28;20488;-69
2024/01/08 00:09:49;;;;;;;2.80;2.60;;;21.20;59.20;;;;;;5051385;28;20437;-70
2024/01/08 00:12:17;;;;;;;2.40;2.20;;;21.20;59.10;;;;;;5049122;28;20820;-70
2024/01/08 00:14:46;;;;;;;1.97;1.87;;;21.20;59.10;;;;;;5040106;28;20457;-70
2024/01/08 00:17:15;;;;;;;2.27;2.07;;;21.20;59.10;;;;;;5062476;28;20441;-70
2024/01/08 00:19:44;;;;;;;3.10;2.80;;;21.20;59.10;;;;;;5052307;28;20544;-70
2024/01/08 00:22:12;;;;;;;2.20;2.00;;;21.10;59.10;;;;;;5062425;28;20465;-71
2024/01/08 00:24:40;;;;;;;2.33;2.13;;;21.10;59.10;;;;;;5059198;28;20456;-71
2024/01/08 00:27:08;;;;;;;3.40;2.00;;;21.10;59.10;;;;;;5063417;28;20970;-69
2024/01/08 00:29:37;;;;;;;2.20;2.10;;;21.10;59.10;;;;;;5058066;28;20793;-70
2024/01/08 00:32:06;;;;;;;2.80;2.20;;;21.10;59.10;;;;;;5060699;28;20946;-70
2024/01/08 00:34:36;;;;;;;2.57;2.37;;;21.10;59.10;;;;;;5059328;28;20510;-69
2024/01/08 00:37:04;;;;;;;2.17;2.03;;;21.10;59.10;;;;;;5055482;28;20498;-71
2024/01/08 00:39:32;;;;;;;2.57;2.37;;;21.10;59.10;;;;;;5057155;28;20469;-69
2024/01/08 00:42:01;;;;;;;2.10;2.00;;;21.10;59.10;;;;;;5056697;28;20484;-70
2024/01/08 00:44:29;;;;;;;2.03;1.83;;;21.10;59.10;;;;;;5057807;28;20459;-70
2024/01/08 00:46:58;;;;;;;2.83;2.20;;;21.10;59.10;;;;;;5064770;28;20436;-69
2024/01/08 00:49:26;;;;;;;2.37;2.23;;;21.00;59.10;;;;;;5050532;28;20431;-69
2024/01/08 00:51:56;;;;;;;2.17;2.07;;;21.00;59.10;;;;;;5049148;28;20470;-69
2024/01/08 00:54:24;;;;;;;2.37;2.17;;;21.00;59.10;;;;;;5052626;28;20452;-70
2024/01/08 00:56:52;;;;;;;3.00;2.37;;;21.00;59.00;;;;;;5055748;28;20435;-69
2024/01/08 00:59:20;;;;;;;1.77;1.67;;;21.00;59.00;;;;;;5040386;28;20522;-69
2024/01/08 01:01:49;;;;;;;2.43;2.23;;;21.00;59.00;;;;;;5031403;28;20473;-69
2024/01/08 01:04:17;;;;;;;4.13;1.93;;;21.00;59.00;;;;;;5049229;28;20993;-69
2024/01/08 01:06:45;;;;;;;2.13;1.93;;;21.00;59.00;;;;;;5052392;28;20534;-69
2024/01/08 01:09:15;;;;;;;2.10;2.00;;;21.00;59.00;;;;;;5050132;28;20795;-69
2024/01/08 01:11:43;;;;;;;2.07;1.97;;;21.00;59.00;;;;;;5051783;28;20428;-71
2024/01/08 01:14:11;;;;;;;3.07;2.73;;;21.00;59.00;;;;;;5043009;28;20476;-70
2024/01/08 01:16:40;;;;;;;1.90;1.80;;;21.00;58.90;;;;;;5048340;28;20460;-69
2024/01/08 01:19:08;;;;;;;1.80;1.70;;;21.00;58.90;;;;;;5044093;28;20456;-70
2024/01/08 01:21:37;;;;;;;2.47;2.27;;;21.00;58.90;;;;;;5045634;28;20480;-69
2024/01/08 01:24:05;;;;;;;1.60;1.50;;;21.00;58.90;;;;;;5048081;28;20456;-70
2024/01/08 01:26:35;;;;;;;1.73;1.63;;;21.00;58.80;;;;;;5045815;28;20455;-69
2024/01/08 01:29:03;;;;;;;2.10;1.90;;;21.00;58.80;;;;;;5044254;28;20947;-69
2024/01/08 01:31:31;;;;;;;3.50;2.10;;;21.00;58.80;;;;;;5049029;28;20443;-69
2024/01/08 01:34:00;;;;;;;1.60;1.50;;;21.00;58.80;;;;;;5044399;28;20468;-69
2024/01/08 01:36:29;;;;;;;1.80;1.70;;;20.90;58.90;;;;;;5051199;28;20470;-69
2024/01/08 01:38:57;;;;;;;1.77;1.67;;;20.90;58.80;;;;;;5047791;28;20968;-69
2024/01/08 01:41:25;;;;;;;1.90;1.80;;;20.90;58.90;;;;;;5043741;28;20484;-69
2024/01/08 01:43:55;;;;;;;2.00;1.90;;;20.90;58.90;;;;;;5053348;28;20463;-69
2024/01/08 01:46:28;;;;;;;1.73;1.63;;;20.90;58.90;;;;;;5043823;28;20466;-69
2024/01/08 01:48:56;;;;;;;2.07;1.97;;;20.90;58.80;;;;;;5038717;28;20948;-69
2024/01/08 01:51:24;;;;;;;1.40;1.30;;;20.90;58.80;;;;;;5048998;28;20510;-69
2024/01/08 01:53:53;;;;;;;1.73;1.63;;;20.90;58.80;;;;;;5051055;28;20433;-69
2024/01/08 01:56:21;;;;;;;1.87;1.47;;;20.90;58.70;;;;;;5050781;28;20439;-70
2024/01/08 01:58:50;;;;;;;1.80;1.60;;;20.90;58.80;;;;;;5050875;28;20548;-69
2024/01/08 02:01:20;;;;;;;1.60;1.50;;;20.90;58.70;;;;;;5050356;28;20478;-69
2024/01/08 02:03:49;;;;;;;1.90;1.60;;;20.90;58.80;;;;;;5043603;28;20933;-70
2024/01/08 02:06:22;;;;;;;1.70;1.60;;;20.90;58.70;;;;;;5046556;28;20457;-69
2024/01/08 02:08:51;;;;;;;1.87;1.77;;;20.90;58.70;;;;;;5048772;28;20435;-71
2024/01/08 02:11:20;;;;;;;2.93;1.80;;;20.90;58.70;;;;;;5043561;28;20470;-70
2024/01/08 02:13:49;;;;;;;1.50;1.40;;;20.90;58.60;;;;;;5049377;28;20532;-70
2024/01/08 02:16:18;;;;;;;2.27;1.90;;;20.90;58.60;;;;;;5040616;28;20481;-69
2024/01/08 02:18:48;;;;;;;2.13;1.93;;;20.90;58.60;;;;;;5049215;28;20448;-70
2024/01/08 02:21:16;;;;;;;1.77;1.60;;;20.90;58.60;;;;;;5043506;28;20462;-70
2024/01/08 02:23:46;;;;;;;1.50;1.40;;;20.80;58.70;;;;;;5049339;28;20848;-69
2024/01/08 02:26:15;;;;;;;2.07;1.97;;;20.80;58.70;;;;;;5050776;28;20447;-69
2024/01/08 02:28:43;;;;;;;1.60;1.50;;;20.80;58.70;;;;;;5050717;28;20426;-71
2024/01/08 02:31:12;;;;;;;1.70;1.60;;;20.80;58.70;;;;;;5051299;28;20885;-69
2024/01/08 02:33:40;;;;;;;1.97;1.77;;;20.80;58.70;;;;;;5047890;28;21097;-71
2024/01/08 02:36:09;;;;;;;1.60;1.50;;;20.80;58.70;;;;;;5061053;28;20945;-69
2024/01/08 02:38:37;;;;;;;1.40;1.30;;;20.80;58.70;;;;;;5051519;28;20459;-69
2024/01/08 02:41:06;;;;;;;1.80;1.70;;;20.80;58.70;;;;;;5049287;28;20829;-70
2024/01/08 02:43:35;;;;;;;2.90;1.80;;;20.80;58.70;;;;;;5045103;28;20788;-71
2024/01/08 02:46:03;;;;;;;1.57;1.50;;;20.80;58.60;;;;;;5052141;28;20446;-71
2024/01/08 02:48:31;;;;;;;1.40;1.30;;;20.80;58.60;;;;;;5049523;28;20951;-70
2024/01/08 02:51:00;;;;;;;1.47;1.37;;;20.80;58.60;;;;;;5037214;28;20460;-69
2024/01/08 02:53:28;;;;;;;1.43;1.37;;;20.70;58.60;;;;;;5045514;28;20947;-69
2024/01/08 02:55:56;;;;;;;1.97;1.53;;;20.70;58.60;;;;;;5054337;28;20427;-69
2024/01/08 02:58:26;;;;;;;1.50;1.40;;;20.70;58.60;;;;;;5053894;28;20435;-72
2024/01/08 03:00:55;;;;;;;1.80;1.70;;;20.70;58.60;;;;;;5046499;28;21349;-69
2024/01/08 03:03:24;;;;;;;1.70;1.60;;;20.70;58.70;;;;;;5052817;28;20466;-70
2024/01/08 03:05:53;;;;;;;1.70;1.60;;;20.70;58.70;;;;;;5048202;28;20481;-69
2024/01/08 03:08:22;;;;;;;1.80;1.70;;;20.70;58.70;;;;;;5052760;28;21024;-70
2024/01/08 03:10:50;;;;;;;1.93;1.30;;;20.70;58.70;;;;;;5053914;28;20439;-70
2024/01/08 03:13:18;;;;;;;1.20;1.13;;;20.70;58.70;;;;;;5054151;28;20450;-69
2024/01/08 03:15:48;;;;;;;1.77;1.50;;;20.60;58.70;;;;;;5047397;28;20951;-70
2024/01/08 03:18:16;;;;;;;1.67;1.57;;;20.60;58.80;;;;;;5033967;28;20464;-70
2024/01/08 03:20:45;;;;;;;0.97;0.97;;;20.60;58.80;;;;;;5043065;28;20460;-69
2024/01/08 03:23:13;;;;;;;1.60;1.50;;;20.60;58.80;;;;;;5053835;28;20464;-70
2024/01/08 03:25:41;;;;;;;1.60;1.50;;;20.60;58.80;;;;;;5060232;28;21110;-70
2024/01/08 03:28:09;;;;;;;1.77;1.67;;;20.60;58.80;;;;;;5073791;28;20441;-70
2024/01/08 03:30:37;;;;;;;1.67;1.57;;;20.60;58.80;;;;;;5073301;28;20468;-70
2024/01/08 03:33:07;;;;;;;1.63;1.53;;;20.60;58.80;;;;;;5062776;28;20433;-70
2024/01/08 03:35:36;;;;;;;1.40;1.30;;;20.60;58.80;;;;;;5033074;28;20454;-70
2024/01/08 03:38:04;;;;;;;1.33;1.27;;;20.60;58.80;;;;;;5032961;28;20445;-70
2024/01/08 03:40:32;;;;;;;1.10;1.00;;;20.60;58.80;;;;;;5043814;28;20436;-70
2024/01/08 03:43:01;;;;;;;1.40;1.30;;;20.50;58.80;;;;;;5052815;28;20482;-69
2024/01/08 03:45:29;;;;;;;1.40;1.30;;;20.50;58.90;;;;;;5044491;28;20501;-69
2024/01/08 03:47:57;;;;;;;1.30;1.20;;;20.50;58.90;;;;;;5046083;28;20451;-69
2024/01/08 03:50:27;;;;;;;1.40;1.30;;;20.50;58.80;;;;;;5045332;28;20460;-70
2024/01/08 03:52:55;;;;;;;1.47;1.37;;;20.50;58.90;;;;;;5052421;28;20555;-70
2024/01/08 03:55:23;;;;;;;1.60;1.50;;;20.50;58.80;;;;;;5052487;28;20457;-70
2024/01/08 03:57:51;;;;;;;1.20;1.20;;;20.50;58.90;;;;;;5052748;28;20443;-71
2024/01/08 04:00:20;;;;;;;1.43;1.33;;;20.50;58.90;;;;;;5053478;28;20431;-69
2024/01/08 04:02:48;;;;;;;1.23;1.20;;;20.50;58.80;;;;;;5047085;28;20475;-70
2024/01/08 04:05:17;;;;;;;1.90;1.80;;;20.50;58.80;;;;;;5052056;28;20446;-70
2024/01/08 04:07:46;;;;;;;1.93;1.73;;;20.50;58.90;;;;;;5045426;28;20587;-70
2024/01/08 04:10:14;;;;;;;1.60;1.50;;;20.50;59.00;;;;;;5045942;28;20452;-71
2024/01/08 04:12:42;;;;;;;3.43;1.10;;;20.50;59.00;;;;;;5051663;28;20475;-70
2024/01/08 04:15:11;;;;;;;1.47;1.37;;;20.50;59.00;;;;;;5057509;28;20478;-70
2024/01/08 04:17:39;;;;;;;1.50;1.40;;;20.50;59.00;;;;;;5058585;28;20517;-71
2024/01/08 04:20:09;;;;;;;1.73;1.17;;;20.40;59.00;;;;;;5051840;28;20443;-70
2024/01/08 04:22:37;;;;;;;1.67;1.57;;;20.40;59.00;;;;;;5044001;28;20451;-71
2024/01/08 04:25:07;;;;;;;1.20;1.10;;;20.40;59.00;;;;;;5052878;28;20763;-70
2024/01/08 04:27:35;;;;;;;1.47;1.37;;;20.40;59.00;;;;;;5051914;28;20494;-70
2024/01/08 04:30:04;;;;;;;1.20;1.10;;;20.40;59.00;;;;;;5052890;28;20497;-69
2024/01/08 04:32:33;;;;;;;1.40;1.30;;;20.40;58.90;;;;;;5050789;28;20491;-70
2024/01/08 04:35:02;;;;;;;1.20;1.10;;;20.40;59.00;;;;;;5036992;28;20486;-73
2024/01/08 04:37:31;;;;;;;1.33;1.23;;;20.40;58.90;;;;;;5052505;28;20428;-70
2024/01/08 04:39:59;;;;;;;1.40;1.30;;;20.40;58.90;;;;;;5045739;28;20492;-70
2024/01/08 04:42:28;;;;;;;1.30;1.27;;;20.40;58.80;;;;;;5051589;28;20476;-71
2024/01/08 04:44:57;;;;;;;1.47;1.37;;;20.40;58.80;;;;;;5047332;28;20984;-70
2024/01/08 04:47:25;;;;;;;1.70;1.60;;;20.40;58.80;;;;;;5041504;28;20890;-70
2024/01/08 04:49:53;;;;;;;1.40;1.30;;;20.40;58.80;;;;;;5045375;28;20514;-70
2024/01/08 04:52:21;;;;;;;1.43;1.33;;;20.40;58.70;;;;;;5048426;28;21590;-70
2024/01/08 04:54:50;;;;;;;1.50;1.40;;;20.40;58.80;;;;;;5052873;28;20509;-70
2024/01/08 04:57:18;;;;;;;1.13;1.13;;;20.40;58.70;;;;;;5046498;28;20460;-69
2024/01/08 04:59:48;;;;;;;1.50;1.40;;;20.30;58.60;;;;;;5045239;28;20443;-70
2024/01/08 05:02:16;;;;;;;1.73;1.63;;;20.30;58.60;;;;;;5053564;28;20451;-70
2024/01/08 05:04:44;;;;;;;1.43;1.33;;;20.40;58.60;;;;;;5047524;28;20474;-70
2024/01/08 05:07:12;;;;;;;1.43;1.33;;;20.30;58.50;;;;;;5048213;28;20501;-70
2024/01/08 05:09:41;;;;;;;1.00;1.00;;;20.40;58.50;;;;;;5053339;28;20467;-70
2024/01/08 05:12:09;;;;;;;1.13;1.13;;;20.40;58.50;;;;;;5045547;28;20940;-69
2024/01/08 05:14:37;;;;;;;1.47;1.37;;;20.40;58.40;;;;;;5048838;28;20464;-70
2024/01/08 05:17:07;;;;;;;1.37;1.30;;;20.40;58.30;;;;;;5046395;28;20950;-72
2024/01/08 05:19:35;;;;;;;1.10;1.10;;;20.40;58.20;;;;;;5041770;28;20455;-69
2024/01/08 05:22:04;;;;;;;1.40;1.30;;;20.50;58.10;;;;;;5038958;28;20464;-69
2024/01/08 05:24:32;;;;;;;1.30;1.20;;;20.50;58.00;;;;;;5045682;28;20480;-68
2024/01/08 05:27:00;;;;;;;1.13;1.13;;;20.50;57.90;;;;;;5052939;28;20439;-69
2024/01/08 05:29:28;;;;;;;1.30;1.20;;;20.60;57.70;;;;;;5056388;28;20459;-66
2024/01/08 05:31:57;;;;;;;1.10;1.10;;;20.60;57.60;;;;;;5047033;28;20514;-66
2024/01/08 05:34:27;;;;;;;1.53;1.43;;;20.60;57.50;;;;;;5045526;28;20467;-67
2024/01/08 05:36:56;;;;;;;1.50;1.40;;;20.70;57.50;;;;;;5042865;28;20561;-67
2024/01/08 05:39:24;;;;;;;1.60;1.27;;;20.70;57.50;;;;;;5049419;28;20448;-67
2024/01/08 05:41:52;;;;;;;1.57;1.47;;;20.70;57.50;;;;;;5052780;28;20517;-67
2024/01/08 05:44:20;;;;;;;1.50;1.40;;;20.80;57.40;;;;;;5052264;28;21007;-67
2024/01/08 05:46:49;;;;;;;1.60;1.50;;;20.80;57.20;;;;;;5038797;28;20445;-66
2024/01/08 05:49:17;;;;;;;1.20;1.20;;;20.80;57.20;;;;;;5048975;28;20469;-68
2024/01/08 05:51:47;;;;;;;1.57;1.47;;;20.90;57.20;;;;;;5039651;28;20458;-67
2024/01/08 05:54:15;;;;;;;1.13;1.07;;;20.90;57.30;;;;;;5040989;28;20469;-67
2024/01/08 05:56:43;;;;;;;1.77;1.17;;;20.90;57.60;;;;;;5042844;28;20948;-67
2024/01/08 05:59:14;;;;;;;2.60;1.30;;;21.00;57.80;;;;;;5047610;28;20464;-68
2024/01/08 06:01:43;;;;;;;1.30;1.20;;;21.00;58.10;;;;;;5042140;28;20588;-68
2024/01/08 06:04:11;;;;;;;2.20;1.13;;;21.10;58.20;;;;;;5047488;28;20546;-67
2024/01/08 06:06:39;;;;;;;2.43;1.50;;;21.10;58.40;;;;;;5043956;28;21032;-67
2024/01/08 06:09:09;;;;;;;2.10;1.43;;;21.20;58.40;;;;;;5055068;28;20473;-68
2024/01/08 06:11:37;;;;;;;2.57;1.17;;;21.20;58.40;;;;;;5054514;28;20461;-67
2024/01/08 06:14:08;;;;;;;1.40;1.30;;;21.20;58.40;;;;;;5041349;28;22053;-70
2024/01/08 06:16:36;;;;;;;3.17;1.47;;;21.30;58.30;;;;;;5042928;28;20460;-69
2024/01/08 06:19:04;;;;;;;4.70;1.70;;;21.30;58.30;;;;;;5040024;28;20470;-67
2024/01/08 06:21:33;;;;;;;1.73;1.53;;;21.30;58.30;;;;;;5040228;28;20458;-69
2024/01/08 06:24:01;;;;;;;2.57;1.57;;;21.30;58.30;;;;;;5039435;28;20959;-67
2024/01/08 06:26:31;;;;;;;6.07;3.00;;;21.30;58.30;;;;;;5035223;28;20446;-67
2024/01/08 06:29:00;;;;;;;1.57;1.47;;;21.30;58.40;;;;;;5052245;28;20455;-67
2024/01/08 06:31:28;;;;;;;3.50;1.70;;;21.30;58.20;;;;;;5041176;28;20496;-67
2024/01/08 06:33:57;;;;;;;4.40;2.40;;;21.30;56.70;;;;;;5051040;28;20459;-67
2024/01/08 06:36:25;;;;;;;2.50;2.00;;;21.30;56.90;;;;;;5042764;28;20862;-67
2024/01/08 06:38:53;;;;;;;2.23;1.57;;;21.30;56.00;;;;;;5035481;28;20811;-68
2024/01/08 06:41:21;;;;;;;1.93;1.80;;;21.30;56.60;;;;;;5050357;28;20472;-68
2024/01/08 06:43:51;;;;;;;4.30;1.97;;;21.20;55.60;;;;;;5046634;28;20921;-68
2024/01/08 06:46:19;;;;;;;5.07;1.97;;;21.20;55.10;;;;;;5055124;28;20859;-68
2024/01/08 06:48:48;;;;;;;2.90;2.27;;;21.20;54.60;;;;;;5048515;28;20849;-68
2024/01/08 06:51:16;;;;;;;3.70;1.90;;;21.10;54.60;;;;;;5046346;28;20468;-67
2024/01/08 06:53:44;;;;;;;3.70;1.93;;;21.10;54.70;;;;;;5046096;28;20500;-67
2024/01/08 06:56:13;;;;;;;2.57;2.13;;;21.10;54.10;;;;;;5044537;28;20468;-69
2024/01/08 06:58:41;;;;;;;1.70;1.60;;;21.10;54.30;;;;;;5047102;28;20567;-68
2024/01/08 07:01:11;;;;;;;2.00;1.80;;;21.00;54.30;;;;;;5042316;28;20794;-67
2024/01/08 07:03:39;;;;;;;1.90;1.63;;;21.00;54.00;;;;;;5051252;28;20427;-67
2024/01/08 07:06:07;;;;;;;3.60;2.07;;;21.00;53.30;;;;;;5053347;28;20472;-67
2024/01/08 07:08:36;;;;;;;2.67;1.57;;;21.00;53.70;;;;;;5037740;28;20450;-67
2024/01/08 07:11:04;;;;;;;2.20;2.07;;;21.00;53.90;;;;;;5045744;28;20540;-67
2024/01/08 07:13:32;;;;;;;1.77;1.67;;;21.00;52.80;;;;;;5046619;28;20460;-68
2024/01/08 07:16:03;;;;;;;2.97;2.20;;;20.90;53.70;;;;;;5048090;28;20992;-67
2024/01/08 07:18:33;;;;;;;2.47;2.27;;;20.90;53.50;;;;;;5045376;28;20443;-67
2024/01/08 07:21:01;;;;;;;2.33;1.70;;;20.90;52.80;;;;;;5043886;28;20538;-68
2024/01/08 07:23:30;;;;;;;2.27;2.17;;;20.90;53.00;;;;;;5056443;28;20463;-67
2024/01/08 07:25:58;;;;;;;2.20;2.00;;;20.90;52.40;;;;;;5049433;28;21062;-67
2024/01/08 07:28:26;;;;;;;2.10;1.87;;;21.00;52.60;;;;;;5051013;28;20544;-67
2024/01/08 07:30:55;;;;;;;1.90;1.80;;;21.00;52.30;;;;;;5052032;28;20448;-68
2024/01/08 07:33:23;;;;;;;3.20;2.10;;;21.00;52.30;;;;;;5051650;28;20474;-68
2024/01/08 07:35:53;;;;;;;2.20;1.90;;;21.00;52.30;;;;;;5048595;28;20449;-67
2024/01/08 07:38:22;;;;;;;2.00;1.90;;;21.00;51.20;;;;;;5034375;28;21004;-67
2024/01/08 07:40:50;;;;;;;2.13;1.87;;;21.00;51.50;;;;;;5046597;28;20463;-68
2024/01/08 07:43:18;;;;;;;1.93;1.73;;;20.90;51.10;;;;;;5040771;28;20460;-68
2024/01/08 07:45:47;;;;;;;3.80;2.00;;;20.90;51.10;;;;;;5048316;28;20477;-67
2024/01/08 07:48:15;;;;;;;2.07;1.97;;;20.90;51.90;;;;;;5053056;28;20428;-67
2024/01/08 07:50:43;;;;;;;3.13;2.43;;;20.90;51.40;;;;;;5052689;28;20448;-68
2024/01/08 07:53:14;;;;;;;2.00;1.80;;;20.90;51.60;;;;;;5045149;28;20806;-67
2024/01/08 07:55:42;;;;;;;2.43;2.23;;;20.90;51.90;;;;;;5044381;28;20439;-68
2024/01/08 07:58:13;;;;;;;2.30;2.10;;;20.90;51.30;;;;;;5049032;28;20467;-67
2024/01/08 08:00:42;;;;;;;1.97;1.80;;;20.90;51.30;;;;;;5041219;28;20568;-67
2024/01/08 08:03:10;;;;;;;2.00;1.90;;;20.90;51.90;;;;;;5051572;28;20445;-68
2024/01/08 08:05:40;;;;;;;2.00;1.87;;;20.90;51.40;;;;;;5042906;28;20558;-67
2024/01/08 08:08:08;;;;;;;2.77;2.57;;;20.90;52.00;;;;;;5041490;28;20480;-67
2024/01/08 08:10:38;;;;;;;2.00;1.90;;;20.90;51.50;;;;;;5058528;28;20445;-68
2024/01/08 08:13:06;;;;;;;2.43;2.23;;;20.90;52.10;;;;;;5045968;28;20517;-68
2024/01/08 08:15:34;;;;;;;1.90;1.80;;;20.90;52.20;;;;;;5045724;28;20487;-69
2024/01/08 08:18:03;;;;;;;2.63;2.37;;;20.90;52.50;;;;;;5040580;28;20460;-68
2024/01/08 08:20:32;;;;;;;3.27;1.57;;;21.00;52.70;;;;;;5045925;28;20459;-67
2024/01/08 08:23:00;;;;;;;6.73;2.90;;;21.00;53.10;;;;;;5047256;28;20459;-69
2024/01/08 08:25:29;;;;;;;2.20;1.80;;;21.10;53.30;;;;;;5046860;28;20518;-67
2024/01/08 08:27:58;;;;;;;2.20;2.00;;;21.10;53.60;;;;;;5047413;28;20454;-67
2024/01/08 08:30:26;;;;;;;3.90;1.73;;;21.20;53.90;;;;;;5042418;28;20463;-67
2024/01/08 08:32:56;;;;;;;2.90;1.80;;;21.20;54.00;;;;;;5045294;28;20466;-67
2024/01/08 08:35:25;;;;;;;2.60;2.40;;;21.30;54.10;;;;;;5043942;28;20818;-68
2024/01/08 08:37:53;;;;;;;2.30;2.10;;;21.30;54.20;;;;;;5043362;28;20957;-68
2024/01/08 08:40:22;;;;;;;2.90;2.00;;;21.30;54.20;;;;;;5046330;28;20460;-67
2024/01/08 08:42:52;;;;;;;2.47;2.27;;;21.40;54.30;;;;;;5041145;28;20458;-67
2024/01/08 08:45:22;;;;;;;2.33;2.13;;;21.40;54.30;;;;;;5047650;28;20516;-68
2024/01/08 08:47:50;;;;;;;2.60;2.13;;;21.40;54.30;;;;;;5036812;28;20449;-69
2024/01/08 08:50:19;;;;;;;1.93;1.83;;;21.40;54.40;;;;;;5039990;28;20454;-68
2024/01/08 08:52:48;;;;;;;2.20;2.10;;;21.40;54.40;;;;;;5053952;28;20490;-71
2024/01/08 08:55:16;;;;;;;2.20;1.63;;;21.40;54.40;;;;;;5049090;28;21240;-67
2024/01/08 08:57:44;;;;;;;2.00;1.90;;;21.40;54.50;;;;;;5046123;28;20526;-68
2024/01/08 09:00:13;;;;;;;3.63;2.30;;;21.40;54.50;;;;;;5043747;28;20456;-67
2024/01/08 09:02:49;;;;;;;1.80;1.70;;;21.40;54.50;;;;;;5044207;28;20540;-67
2024/01/08 09:05:18;;;;;;;2.20;2.00;;;21.40;54.50;;;;;;5043479;28;20482;-68
2024/01/08 09:08:00;;;;;;;2.30;2.10;;;21.40;54.50;;;;;;5043403;28;20923;-67
2024/01/08 09:10:29;;;;;;;2.03;1.80;;;21.40;54.60;;;;;;5047081;28;20475;-67
2024/01/08 09:12:58;;;;;;;1.93;1.83;;;21.40;54.80;;;;;;5046398;28;20460;-67
2024/01/08 09:15:26;;;;;;;4.03;2.10;;;21.30;55.00;;;;;;5054304;28;20461;-68
2024/01/08 09:17:56;;;;;;;2.80;1.77;;;21.30;55.20;;;;;;5047493;28;20545;-67
2024/01/08 09:20:25;;;;;;;3.17;2.40;;;21.30;55.30;;;;;;5047476;28;20584;-67
2024/01/08 09:22:53;;;;;;;2.60;1.97;;;21.40;55.40;;;;;;5050677;28;20525;-67
2024/01/08 09:25:22;;;;;;;2.13;1.93;;;21.40;55.40;;;;;;5030163;28;20467;-67
2024/01/08 09:27:50;;;;;;;2.17;2.07;;;21.40;55.50;;;;;;5030269;28;20442;-67
2024/01/08 09:30:19;;;;;;;2.40;2.17;;;21.40;55.60;;;;;;5045845;28;20437;-67
2024/01/08 09:32:47;;;;;;;2.20;2.00;;;21.40;55.60;;;;;;5043267;28;20487;-67
2024/01/08 09:35:17;;;;;;;2.57;2.30;;;21.40;55.70;;;;;;5042244;28;20496;-67
2024/01/08 09:37:46;;;;;;;2.60;1.73;;;21.40;55.70;;;;;;5046153;28;20470;-67
2024/01/08 09:40:14;;;;;;;2.47;1.90;;;21.40;55.70;;;;;;5042775;28;21013;-68
2024/01/08 09:42:42;;;;;;;2.07;1.57;;;21.40;55.70;;;;;;5049369;28;20450;-67
2024/01/08 09:45:12;;;;;;;2.03;1.83;;;21.40;55.80;;;;;;5048529;28;20446;-68
2024/01/08 09:47:42;;;;;;;3.27;2.00;;;21.50;55.80;;;;;;5049283;28;20576;-70
2024/01/08 09:50:13;;;;;;;1.90;1.80;;;21.50;55.80;;;;;;5049871;28;20446;-67
2024/01/08 09:52:44;;;;;;;2.00;1.67;;;21.50;55.80;;;;;;5042803;28;20609;-67
2024/01/08 09:55:13;;;;;;;2.13;1.73;;;21.50;55.90;;;;;;5055341;28;20449;-68
2024/01/08 09:57:42;;;;;;;2.17;1.97;;;21.50;55.90;;;;;;5054477;28;20438;-70
2024/01/08 10:00:11;;;;;;;1.50;1.40;;;21.50;56.00;;;;;;5040284;28;20469;-68
2024/01/08 10:02:40;;;;;;;2.40;1.67;;;21.50;56.00;;;;;;5055248;28;20511;-70
2024/01/08 10:05:08;;;;;;;2.00;1.60;;;21.50;56.00;;;;;;5054924;28;20432;-67
2024/01/08 10:07:37;;;;;;;2.00;1.90;;;21.50;56.00;;;;;;5055097;28;20492;-66
2024/01/08 10:10:07;;;;;;;2.80;2.20;;;21.50;55.90;;;;;;5047407;28;20521;-68
2024/01/08 10:12:36;;;;;;;1.77;1.67;;;21.60;55.90;;;;;;5054709;28;20444;-67
2024/01/08 10:15:06;;;;;;;2.40;2.10;;;21.60;55.90;;;;;;5054894;28;20493;-68
2024/01/08 10:17:35;;;;;;;2.17;1.97;;;21.60;55.80;;;;;;5054874;28;20445;-67
2024/01/08 10:20:08;;;;;;;2.27;2.07;;;21.50;55.80;;;;;;5053616;28;20459;-67
2024/01/08 10:22:38;;;;;;;1.73;1.63;;;21.50;55.80;;;;;;5055182;28;20437;-67
2024/01/08 10:25:09;;;;;;;2.23;1.80;;;21.50;55.80;;;;;;5038258;28;20938;-67
2024/01/08 10:27:38;;;;;;;1.30;1.20;;;21.50;55.80;;;;;;5032943;28;20466;-71
2024/01/08 10:30:07;;;;;;;2.30;2.03;;;21.50;55.80;;;;;;5040849;28;20942;-68
2024/01/08 10:32:37;;;;;;;2.00;1.37;;;21.50;55.80;;;;;;5055055;28;20493;-68
2024/01/08 10:35:07;;;;;;;1.70;1.60;;;21.40;55.80;;;;;;5040326;28;20489;-69
2024/01/08 10:37:38;;;;;;;1.80;1.70;;;21.40;55.80;;;;;;5049604;28;20458;-68
2024/01/08 10:40:10;;;;;;;2.10;1.70;;;21.40;55.90;;;;;;5045776;28;20449;-67
2024/01/08 10:42:40;;;;;;;1.90;1.80;;;21.40;55.90;;;;;;5054514;28;20437;-68
2024/01/08 10:45:09;;;;;;;2.30;1.63;;;21.40;55.90;;;;;;5047147;28;20457;-66
2024/01/08 10:47:43;;;;;;;1.93;1.80;;;21.40;56.00;;;;;;5054624;28;20468;-67
2024/01/08 10:50:14;;;;;;;1.87;1.73;;;21.40;56.00;;;;;;5048158;28;20452;-67
2024/01/08 10:52:54;;;;;;;1.87;1.70;;;21.40;56.00;;;;;;5053536;28;20426;-67
2024/01/08 10:55:24;;;;;;;1.93;1.83;;;21.50;55.90;;;;;;5053356;28;21385;-67
2024/01/08 10:57:58;;;;;;;1.90;1.80;;;21.50;55.90;;;;;;5053800;28;20525;-67
2024/01/08 11:00:27;;;;;;;1.87;1.77;;;21.50;55.90;;;;;;5051492;28;20472;-70
2024/01/08 11:02:56;;;;;;;1.73;1.63;;;21.50;55.80;;;;;;5052964;28;20552;-68
2024/01/08 11:05:28;;;;;;;1.90;1.80;;;21.50;55.80;;;;;;5055671;28;20515;-67
2024/01/08 11:07:57;;;;;;;1.50;1.40;;;21.50;55.80;;;;;;5047617;28;20496;-68
2024/01/08 11:10:29;;;;;;;1.53;1.43;;;21.50;55.80;;;;;;5054764;28;20468;-67
2024/01/08 11:12:58;;;;;;;1.77;1.67;;;21.60;55.90;;;;;;5047252;28;20450;-67
2024/01/08 11:15:27;;;;;;;1.67;1.57;;;21.60;55.90;;;;;;5054660;28;20487;-67
2024/01/08 11:17:58;;;;;;;2.30;2.10;;;21.60;55.90;;;;;;5043160;28;20971;-70
2024/01/08 11:20:42;;;;;;;3.30;1.77;;;21.60;55.90;;;;;;5049411;28;24972;-66
2024/01/08 11:23:33;;;;;;;2.43;1.93;;;21.60;56.00;;;;;;5052970;28;21216;-67
2024/01/08 11:26:05;;;;;;;1.93;1.83;;;21.60;56.10;;;;;;5047965;28;20935;-65
2024/01/08 11:28:38;;;;;;;1.70;1.60;;;21.70;56.30;;;;;;5050386;28;21056;-67
2024/01/08 11:31:57;;;;;;;2.20;2.10;;;21.70;56.20;;;;;;5053682;28;20511;-70
2024/01/08 11:34:59;;;;;;;1.73;1.63;;;21.70;56.30;;;;;;5048325;28;20457;-72
2024/01/08 11:37:34;;;;;;;2.30;1.67;;;21.70;56.30;;;;;;5048397;28;20452;-68
2024/01/08 11:40:06;;;;;;;1.90;1.63;;;21.80;56.20;;;;;;5051417;28;20456;-68
2024/01/08 11:42:36;;;;;;;1.87;1.73;;;21.80;56.20;;;;;;5047512;28;20459;-69
2024/01/08 11:45:05;;;;;;;2.70;1.93;;;21.80;56.20;;;;;;5050005;28;20451;-67
2024/01/08 11:47:34;;;;;;;1.80;1.70;;;21.80;56.10;;;;;;5046019;28;20556;-69
2024/01/08 11:50:04;;;;;;;4.03;1.93;;;21.80;56.10;;;;;;5042961;28;20560;-72
2024/01/08 11:52:34;;;;;;;1.87;1.77;;;21.90;56.00;;;;;;5044084;28;20456;-67
2024/01/08 11:55:04;;;;;;;1.80;1.70;;;21.80;56.00;;;;;;5051344;28;20513;-70
2024/01/08 11:57:34;;;;;;;1.70;1.60;;;21.90;55.90;;;;;;5048975;28;20515;-68
2024/01/08 12:00:14;;;;;;;3.17;1.80;;;21.80;55.80;;;;;;5046456;28;20477;-68
2024/01/08 12:02:42;;;;;;;2.60;2.10;;;21.80;55.80;;;;;;5043062;28;20441;-72
2024/01/08 12:05:12;;;;;;;2.00;1.90;;;21.80;55.80;;;;;;5044437;28;20507;-68
2024/01/08 12:07:41;;;;;;;2.07;1.93;;;21.90;55.70;;;;;;5044322;28;20559;-74
2024/01/08 12:10:12;;;;;;;1.80;1.70;;;21.80;55.70;;;;;;5046065;28;20449;-71
2024/01/08 12:12:41;;;;;;;2.83;1.90;;;21.90;55.70;;;;;;5045184;28;20544;-73
2024/01/08 12:15:10;;;;;;;4.00;1.87;;;21.90;55.60;;;;;;5045792;28;20467;-66
2024/01/08 12:17:40;;;;;;;1.90;1.80;;;21.90;55.60;;;;;;5049221;28;20462;-74
2024/01/08 12:20:11;;;;;;;2.13;1.90;;;21.90;55.60;;;;;;5045801;28;20453;-66
2024/01/08 12:22:40;;;;;;;1.60;1.47;;;21.90;55.60;;;;;;5045758;28;20554;-68
2024/01/08 12:25:11;;;;;;;1.63;1.50;;;22.00;55.60;;;;;;5055547;28;20462;-67
2024/01/08 12:27:40;;;;;;;2.00;1.80;;;22.00;55.60;;;;;;5042466;28;20474;-73
2024/01/08 12:30:12;;;;;;;1.57;1.47;;;22.00;55.50;;;;;;5044311;28;20475;-67
2024/01/08 12:32:42;;;;;;;1.40;1.30;;;22.10;55.50;;;;;;5043246;28;20822;-73
2024/01/08 12:35:11;;;;;;;1.27;1.17;;;22.10;55.50;;;;;;5035508;28;20525;-69
2024/01/08 12:37:43;;;;;;;1.60;1.50;;;22.10;55.40;;;;;;5045243;28;20806;-77
2024/01/08 12:40:13;;;;;;;1.63;1.53;;;22.10;55.40;;;;;;5044036;28;20469;-67
2024/01/08 12:42:42;;;;;;;1.87;1.77;;;22.10;55.40;;;;;;5051593;28;20455;-69
2024/01/08 12:45:11;;;;;;;1.47;1.37;;;22.20;55.40;;;;;;5047587;28;20454;-66
2024/01/08 12:47:41;;;;;;;1.93;1.40;;;22.20;55.40;;;;;;5048145;28;20570;-65
2024/01/08 12:50:10;;;;;;;1.90;1.30;;;22.20;55.50;;;;;;5052206;28;20454;-65
2024/01/08 12:52:38;;;;;;;1.97;1.67;;;22.20;55.80;;;;;;5048907;28;20486;-68
2024/01/08 12:55:08;;;;;;;2.13;1.90;;;22.20;56.00;;;;;;5050999;28;20483;-68
2024/01/08 12:57:36;;;;;;;1.53;1.43;;;22.20;56.10;;;;;;5050527;28;20462;-65
2024/01/08 13:00:05;;;;;;;1.70;1.60;;;22.30;56.20;;;;;;5041557;28;20502;-68